createdAt,value
2017-09-24T00:00:55.560Z,101851.21
2017-09-24T00:06:02.086Z,101847.77
2017-09-24T00:11:07.745Z,101851.59
2017-09-24T00:16:12.224Z,101843.80
2017-09-24T00:21:18.829Z,101837.32
2017-09-24T00:26:25.350Z,101834.42
2017-09-24T00:31:30.756Z,101843.45
2017-09-24T00:36:37.392Z,101834.84
2017-09-24T00:41:42.873Z,101827.08
2017-09-24T00:46:49.996Z,101793.78
2017-09-24T00:51:56.260Z,101829.91
2017-09-24T00:57:02.809Z,101827.77
2017-09-24T01:02:05.654Z,101817.82
2017-09-24T01:07:11.967Z,101827.56
2017-09-24T01:12:17.609Z,101831.21
2017-09-24T01:17:22.988Z,101838.08
2017-09-24T01:22:28.472Z,101836.33
2017-09-24T01:27:31.342Z,101836.02
2017-09-24T01:32:33.737Z,101836.09
2017-09-24T01:37:36.416Z,101837.00
2017-09-24T01:42:40.115Z,101830.88
2017-09-24T01:47:42.736Z,101830.23
2017-09-24T01:52:48.997Z,101832.77
2017-09-24T01:57:54.585Z,101832.92
2017-09-24T02:02:59.170Z,101831.66
2017-09-24T02:08:05.068Z,101832.67
2017-09-24T02:13:11.080Z,101827.14
2017-09-24T02:18:17.544Z,101829.84
2017-09-24T02:23:20.364Z,101822.48
2017-09-24T02:28:25.432Z,101815.36
2017-09-24T02:33:30.597Z,101808.36
2017-09-24T02:38:38.608Z,101810.86
2017-09-24T02:43:42.034Z,101816.98
2017-09-24T02:48:51.651Z,101815.77
2017-09-24T02:53:55.367Z,101825.06
2017-09-24T02:58:57.999Z,101813.58
2017-09-24T03:04:00.551Z,101819.84
2017-09-24T03:09:07.551Z,101807.08
2017-09-24T03:14:11.888Z,101812.17
2017-09-24T03:19:17.548Z,101812.48
2017-09-24T03:24:21.197Z,101810.27
2017-09-24T03:29:26.481Z,101809.28
2017-09-24T03:34:31.979Z,101804.91
2017-09-24T03:39:38.687Z,101808.73
2017-09-24T03:44:44.621Z,101807.16
2017-09-24T03:49:48.341Z,101817.76
2017-09-24T03:54:51.802Z,101808.08
2017-09-24T03:59:55.118Z,101814.93
2017-09-24T04:04:57.579Z,101817.27
2017-09-24T04:10:03.755Z,101818.20
2017-09-24T04:15:21.811Z,101824.22
2017-09-24T04:20:25.651Z,101828.80
2017-09-24T04:25:28.280Z,101839.30
2017-09-24T04:30:30.953Z,101838.81
2017-09-24T04:35:33.611Z,101845.46
2017-09-24T04:40:36.083Z,101851.88
2017-09-24T04:45:39.235Z,101843.40
2017-09-24T04:50:41.733Z,101842.84
2017-09-24T04:55:47.784Z,101852.64
2017-09-24T05:00:50.880Z,101847.66
2017-09-24T05:05:53.557Z,101844.63
2017-09-24T05:10:56.047Z,101851.10
2017-09-24T05:15:59.021Z,101848.59
2017-09-24T05:21:01.691Z,101857.61
2017-09-24T05:26:04.040Z,101864.13
2017-09-24T05:31:08.586Z,101871.28
2017-09-24T05:36:11.089Z,101876.66
2017-09-24T05:41:16.356Z,101870.20
2017-09-24T05:46:19.311Z,101877.56
2017-09-24T05:51:22.141Z,101873.95
2017-09-24T05:56:25.034Z,101874.06
2017-09-24T06:01:27.168Z,101870.47
2017-09-24T06:06:32.571Z,101881.02
2017-09-24T06:11:36.543Z,101865.91
2017-09-24T06:16:42.700Z,101869.62
2017-09-24T06:21:46.173Z,101877.02
2017-09-24T06:26:49.688Z,101875.22
2017-09-24T06:31:55.395Z,101877.06
2017-09-24T06:36:57.771Z,101885.26
2017-09-24T06:42:00.524Z,101877.70
2017-09-24T06:47:04.843Z,101879.19
2017-09-24T06:52:08.030Z,101875.76
2017-09-24T06:57:12.743Z,101883.05
2017-09-24T07:02:15.036Z,101892.23
2017-09-24T07:07:17.648Z,101878.53
2017-09-24T07:12:20.373Z,101894.00
2017-09-24T07:17:23.696Z,101900.82
2017-09-24T07:22:29.029Z,101896.49
2017-09-24T07:27:31.852Z,101900.47
2017-09-24T07:32:37.489Z,101895.33
2017-09-24T07:37:41.072Z,101894.45
2017-09-24T07:42:44.214Z,101897.32
2017-09-24T07:47:46.374Z,101904.83
2017-09-24T07:52:51.468Z,101901.88
2017-09-24T07:57:53.450Z,101907.96
2017-09-24T08:02:57.043Z,101912.61
2017-09-24T08:07:59.111Z,101909.66
2017-09-24T08:13:01.807Z,101905.82
2017-09-24T08:18:03.760Z,101897.62
2017-09-24T08:23:05.702Z,101883.63
2017-09-24T08:28:07.621Z,101885.13
2017-09-24T08:33:10.289Z,101894.58
2017-09-24T08:38:12.273Z,101901.41
2017-09-24T08:43:14.230Z,101906.20
2017-09-24T08:48:16.229Z,101900.28
2017-09-24T08:53:18.892Z,101899.58
2017-09-24T08:58:23.020Z,101896.96
2017-09-24T09:03:25.023Z,101899.03
2017-09-24T09:08:27.693Z,101896.34
2017-09-24T09:13:29.665Z,101886.09
2017-09-24T09:18:31.597Z,101889.88
2017-09-24T09:23:34.242Z,101897.48
2017-09-24T09:28:36.146Z,101895.77
2017-09-24T09:33:38.182Z,101891.00
2017-09-24T09:38:40.124Z,101893.84
2017-09-24T09:43:45.974Z,101901.13
2017-09-24T09:48:47.873Z,101891.45
2017-09-24T09:53:51.433Z,101890.10
2017-09-24T09:58:53.420Z,101892.10
2017-09-24T10:03:56.087Z,101896.52
2017-09-24T10:09:16.172Z,101904.97
2017-09-24T10:14:18.158Z,101893.29
2017-09-24T10:19:20.070Z,101893.14
2017-09-24T10:24:22.074Z,101899.33
2017-09-24T10:29:28.824Z,101901.39
2017-09-24T10:34:30.766Z,101900.70
2017-09-24T10:39:32.744Z,101893.69
2017-09-24T10:44:34.705Z,101903.16
2017-09-24T10:49:36.647Z,101902.16
2017-09-24T10:54:38.662Z,101908.75
2017-09-24T10:59:41.150Z,101902.59
2017-09-24T11:04:43.087Z,101903.66
2017-09-24T11:09:45.712Z,101905.53
2017-09-24T11:14:47.701Z,101902.68
2017-09-24T11:19:50.396Z,101896.77
2017-09-24T11:24:52.358Z,101905.11
2017-09-24T11:29:54.311Z,101903.11
2017-09-24T11:34:56.251Z,101905.48
2017-09-24T11:39:58.187Z,101901.48
2017-09-24T11:45:00.162Z,101894.72
2017-09-24T11:50:02.168Z,101893.63
2017-09-24T11:55:04.117Z,101898.09
2017-09-24T12:00:06.091Z,101894.80
2017-09-24T12:05:08.039Z,101896.12
2017-09-24T12:10:09.973Z,101895.63
2017-09-24T12:15:11.955Z,101898.03
2017-09-24T12:20:13.875Z,101896.41
2017-09-24T12:25:15.790Z,101903.27
2017-09-24T12:30:17.692Z,101904.80
2017-09-24T12:35:19.606Z,101902.59
2017-09-24T12:40:21.578Z,101908.77
2017-09-24T12:45:23.529Z,101907.00
2017-09-24T12:50:25.446Z,101898.56
2017-09-24T12:55:27.365Z,101900.17
2017-09-24T13:00:29.323Z,101903.86
2017-09-24T13:05:31.299Z,101896.42
2017-09-24T13:10:33.272Z,101896.19
2017-09-24T13:15:35.207Z,101892.66
2017-09-24T13:20:37.140Z,101894.86
2017-09-24T13:25:39.059Z,101892.66
2017-09-24T13:30:40.999Z,101887.73
2017-09-24T13:35:43.626Z,101892.81
2017-09-24T13:40:45.741Z,101884.18
2017-09-24T13:45:47.648Z,101883.60
2017-09-24T13:50:50.317Z,101872.69
2017-09-24T13:55:52.335Z,101883.11
2017-09-24T14:00:54.305Z,101883.97
2017-09-24T14:05:57.014Z,101873.05
2017-09-24T14:10:58.986Z,101867.73
2017-09-24T14:16:00.963Z,101871.91
2017-09-24T14:21:02.955Z,101873.44
2017-09-24T14:26:04.951Z,101869.00
2017-09-24T14:31:07.047Z,101863.88
2017-09-24T14:36:09.000Z,101865.47
2017-09-24T14:41:10.949Z,101866.14
2017-09-24T14:46:12.880Z,101862.58
2017-09-24T14:51:14.934Z,101868.98
2017-09-24T14:56:16.858Z,101868.58
2017-09-24T15:01:19.515Z,101865.27
2017-09-24T15:06:21.483Z,101868.55
2017-09-24T15:11:23.411Z,101866.47
2017-09-24T15:16:26.167Z,101866.80
2017-09-24T15:21:28.359Z,101867.39
2017-09-24T15:26:35.326Z,101867.05
2017-09-24T15:31:37.845Z,101865.84
2017-09-24T15:36:41.021Z,101869.38
2017-09-24T15:41:44.503Z,101868.68
2017-09-24T15:46:46.465Z,101865.75
2017-09-24T15:51:49.126Z,101864.83
2017-09-24T15:56:51.861Z,101870.59
2017-09-24T16:01:53.815Z,101866.41
2017-09-24T16:06:55.757Z,101874.81
2017-09-24T16:11:57.815Z,101882.16
2017-09-24T16:16:59.826Z,101875.75
2017-09-24T16:22:01.824Z,101878.45
2017-09-24T16:27:04.586Z,101875.51
2017-09-24T16:32:07.297Z,101873.80
2017-09-24T16:37:09.244Z,101858.80
2017-09-24T16:42:11.244Z,101879.50
2017-09-24T16:47:13.368Z,101879.97
2017-09-24T16:52:18.513Z,101879.02
2017-09-24T16:57:20.718Z,101872.84
2017-09-24T17:02:22.719Z,101882.77
2017-09-24T17:07:24.683Z,101884.13
2017-09-24T17:12:27.366Z,101881.45
2017-09-24T17:17:29.343Z,101882.38
2017-09-24T17:22:31.297Z,101879.82
2017-09-24T17:27:35.805Z,101883.48
2017-09-24T17:32:37.778Z,101889.07
2017-09-24T17:37:41.091Z,101895.14
2017-09-24T17:42:43.079Z,101900.94
2017-09-24T17:47:45.058Z,101906.44
2017-09-24T17:52:46.983Z,101901.95
2017-09-24T17:57:48.914Z,101905.13
2017-09-24T18:02:50.923Z,101907.34
2017-09-24T18:07:52.860Z,101912.14
2017-09-24T18:12:55.592Z,101914.77
2017-09-24T18:17:57.874Z,101923.70
2017-09-24T18:23:00.434Z,101919.39
2017-09-24T18:28:02.407Z,101918.50
2017-09-24T18:33:05.122Z,101920.45
2017-09-24T18:38:07.191Z,101924.55
2017-09-24T18:43:09.847Z,101925.08
2017-09-24T18:48:12.735Z,101928.40
2017-09-24T18:53:14.714Z,101921.66
2017-09-24T18:58:16.669Z,101927.84
2017-09-24T19:03:19.462Z,101924.63
2017-09-24T19:08:21.396Z,101924.55
2017-09-24T19:13:23.672Z,101918.34
2017-09-24T19:18:26.677Z,101908.23
2017-09-24T19:23:28.684Z,101906.91
2017-09-24T19:28:30.710Z,101906.11
2017-09-24T19:33:32.656Z,101902.36
2017-09-24T19:38:34.597Z,101901.13
2017-09-24T19:43:36.555Z,101895.53
2017-09-24T19:48:38.487Z,101901.23
2017-09-24T19:53:40.560Z,101900.81
2017-09-24T19:58:42.549Z,101906.95
2017-09-24T20:03:44.472Z,101917.75
2017-09-24T20:08:46.381Z,101919.58
2017-09-24T20:13:48.300Z,101919.36
2017-09-24T20:18:51.086Z,101930.83
2017-09-24T20:24:00.079Z,101928.39
2017-09-24T20:29:02.755Z,101927.45
2017-09-24T20:34:04.723Z,101926.48
2017-09-24T20:39:06.656Z,101925.98
2017-09-24T20:44:08.586Z,101925.32
2017-09-24T20:49:10.552Z,101926.64
2017-09-24T20:54:12.591Z,101922.10
2017-09-24T20:59:14.543Z,101920.09
2017-09-24T21:04:16.496Z,101919.34
2017-09-24T21:09:19.416Z,101920.25
2017-09-24T21:14:21.402Z,101934.20
2017-09-24T21:19:24.409Z,101933.09
2017-09-24T21:24:26.380Z,101932.14
2017-09-24T21:29:28.396Z,101921.55
2017-09-24T21:34:30.424Z,101932.75
2017-09-24T21:39:32.394Z,101928.31
2017-09-24T21:44:34.418Z,101934.48
2017-09-24T21:49:37.159Z,101926.95
2017-09-24T21:54:40.801Z,101923.86
2017-09-24T21:59:42.741Z,101924.02
2017-09-24T22:04:44.696Z,101920.78
2017-09-24T22:09:46.682Z,101920.11
2017-09-24T22:14:49.447Z,101926.36
2017-09-24T22:19:51.449Z,101916.21
2017-09-24T22:24:53.433Z,101929.73
2017-09-24T22:29:55.355Z,101926.62
2017-09-24T22:34:57.536Z,101922.52
2017-09-24T22:40:00.122Z,101915.14
2017-09-24T22:45:03.426Z,101914.06
2017-09-24T22:50:05.508Z,101912.45
2017-09-24T22:55:08.125Z,101910.97
2017-09-24T23:00:10.827Z,101918.42
2017-09-24T23:05:13.374Z,101908.27
2017-09-24T23:10:15.974Z,101915.03
2017-09-24T23:15:18.624Z,101907.68
2017-09-24T23:20:20.571Z,101898.41
2017-09-24T23:25:23.203Z,101905.97
2017-09-24T23:30:25.769Z,101898.84
2017-09-24T23:35:28.433Z,101891.95
2017-09-24T23:40:30.675Z,101888.20
2017-09-24T23:45:34.236Z,101888.69
2017-09-24T23:50:37.666Z,101889.95
2017-09-24T23:55:40.217Z,101887.44
